Detall de PIREP

Printer-friendly versionPDF version

[2012/05/26 08:14:00]
Flight IATA:CT3232
Pilot Number:042
Company ICAO:CAT
Aircraft Type:MD11/E
PAX:200
Aircraft Registration:PAX
Departing Airport: LEPA
Destination Airport: LEMD
Alternate Airport:LEMG
Online: VATSIM
Route:EPAMA UN733 PRADO
Flight Level:F350
No Slew and time accel
No pause
Crash detect
Detect pilot in Cockpit between each 30 and 45 minutes
08:14 Zero fuel Weight: 429998 Lbs, Fuel Weight: 37418 Lbs
08:14 VATSIM:LEPA 260800Z VRB01KT CAVOK 23/12 Q1016 NOSIG
08:14 VATSIM:LEMD 260800Z 17008KT 140V210 CAVOK 17/07 Q1017 NOSIG
08:15 VOICE CATALONIAN
08:24 Parking Brakes off
08:28 Take-off
08:28 Take off Weight: 465713 Lbs
08:28 Wind: 000º @ 000 Knots Heading: 238º
08:28 POS N39º 33´ 12´´ E002º 43´ 26´´
08:28 Gear Up: 192 Knots
08:28 Flaps:4 at 192 Knots
08:29 Flaps:3 at 157 Knots
08:29 Flaps:4 at 156 Knots
08:29 Flaps:3 at 156 Knots
08:29 Flaps:2 at156 Knots
08:29 Flaps:1 at 157 Knots
08:29 Flaps:0 at 164 Knots
08:43 Wind:270º@025 Knots Heading: 265º Ground Speed: 446 Knots Altitude 34573 ft
08:43 TOC
08:43 Fuel Weight: 26125 Lb
08:57 TOD
08:57 Fuel Weight: 22387 Lb
08:58 Wind:270º@025 Knots Heading: 297º Ground Speed: 450 Knots Altitude 34173 ft
09:13 Wind:270º@023 Knots Heading: 309º Ground Speed: 290 Knots Altitude 14068 ft
09:16 Flaps:1 at 257 Knots
09:16 Flaps:2 at 255 Knots
09:16 Flaps:3 at 254 Knots
09:16 Flaps:4 at 253 Knots
09:20 Flaps:5 at 211 Knots
09:20 Flaps:4 at 210 Knots
09:20 Flaps:5 at 209 Knots
09:20 Flaps:6 at 208 Knots
09:21 Flaps:7 at 189 Knots
09:21 Gear Down: 185 Knots
09:22 Flaps:8 at 176 Knots
09:22 Flaps:7 at 176 Knots
09:22 Flaps:8 at 174 Knots
09:25 TouchDown:Rate -266 ft/min Speed: 159 Knots
09:25 VATSIM:LEMD 260900Z 22008G20KT 190V270 CAVOK 20/M01 Q1018 NOSIG
09:25 Land
09:25 Wind:000º@000 Knots
09:25 Heading: 180º
09:25 Flight Duration: 00:57
09:25 Landing Weight: 446981 Lbs
09:25 POS N40º 30´ 44´´ W003º 33´ 32´´
09:28 Parking brakes on
09:28 Block to Block Duration: 01:04
09:28 Final Fuel: 16642 Lbls
09:28 Spent Fuel: 20776 Lbls
09:28 Flight Length: 341 NM
09:28 TOD Land Length: 144 NM

Exportar CSV

Powered by Drupal - Modified by Danger4k